NSZ3870 EKBI-LMML
Flight info
| Callsign | NSZ3870 |
|---|---|
| Flight time | 3h 2m |
| Altitude | 35000 |
| Route | ALS M852 HAM DCT ABGUS DCT MOOCE DCT BERAS M736 LIZUM N503 LIKDA DCT BAKOR DCT VESAL DCT CHI DCT PIDEP DCT DIPVO DCT UNIXO DCT DORAS DCT MARON/N0359F190 L12 GZO |
| Aircraft | A320/M-SDE3FGHIRWY/LB1 |
Departure
| Time | 2026-05-05 08:30 |
|---|---|
| Airport | Billund Airport (EKBI) |
Arrival
| Time | 2026-05-05 11:32 |
|---|---|
| Airport | Malta International Airport (LMML) |
| Time | Latitude | Longitude | Altitude | Speed | Heading |
|---|---|---|---|---|---|
| 2026-05-05 08:01 | 55.74527 | 9.14618 | 216 ft | 0 kts | 357° |
| 2026-05-05 08:17 | 55.74509 | 9.14620 | 217 ft | 4 kts | 357° |
| 2026-05-05 08:17 | 55.74491 | 9.14621 | 219 ft | 4 kts | 359° |
| 2026-05-05 08:17 | 55.74465 | 9.14620 | 219 ft | 4 kts | 12° |
| 2026-05-05 08:18 | 55.74445 | 9.14604 | 221 ft | 4 kts | 75° |
| 2026-05-05 08:18 | 55.74444 | 9.14596 | 220 ft | 0 kts | 87° |
| 2026-05-05 08:21 | 55.74444 | 9.14605 | 221 ft | 2 kts | 87° |
| 2026-05-05 08:21 | 55.74445 | 9.14640 | 222 ft | 6 kts | 87° |
| 2026-05-05 08:21 | 55.74448 | 9.14752 | 216 ft | 10 kts | 87° |
| 2026-05-05 08:21 | 55.74451 | 9.14882 | 216 ft | 9 kts | 87° |
| 2026-05-05 08:22 | 55.74423 | 9.14975 | 219 ft | 10 kts | 160° |
| 2026-05-05 08:22 | 55.74357 | 9.14985 | 218 ft | 10 kts | 176° |
| 2026-05-05 08:22 | 55.74283 | 9.14992 | 216 ft | 11 kts | 176° |
| 2026-05-05 08:22 | 55.74215 | 9.15008 | 221 ft | 9 kts | 154° |
| 2026-05-05 08:23 | 55.74199 | 9.15118 | 216 ft | 10 kts | 86° |
| 2026-05-05 08:23 | 55.74204 | 9.15252 | 216 ft | 12 kts | 86° |
| 2026-05-05 08:23 | 55.74208 | 9.15402 | 221 ft | 13 kts | 87° |
| 2026-05-05 08:23 | 55.74213 | 9.15568 | 216 ft | 14 kts | 87° |
| 2026-05-05 08:24 | 55.74218 | 9.15750 | 219 ft | 16 kts | 86° |
| 2026-05-05 08:24 | 55.74225 | 9.15950 | 216 ft | 17 kts | 87° |
| 2026-05-05 08:24 | 55.74231 | 9.16164 | 216 ft | 15 kts | 87° |
| 2026-05-05 08:24 | 55.74237 | 9.16360 | 220 ft | 17 kts | 86° |
| 2026-05-05 08:25 | 55.74244 | 9.16574 | 216 ft | 18 kts | 87° |
| 2026-05-05 08:25 | 55.74251 | 9.16801 | 225 ft | 18 kts | 86° |
| 2026-05-05 08:25 | 55.74258 | 9.17030 | 219 ft | 19 kts | 86° |
| 2026-05-05 08:25 | 55.74266 | 9.17263 | 220 ft | 18 kts | 87° |
| 2026-05-05 08:26 | 55.74272 | 9.17478 | 216 ft | 16 kts | 87° |
| 2026-05-05 08:26 | 55.74278 | 9.17676 | 216 ft | 16 kts | 87° |
| 2026-05-05 08:26 | 55.74284 | 9.17875 | 216 ft | 14 kts | 86° |
| 2026-05-05 08:26 | 55.74285 | 9.18027 | 216 ft | 12 kts | 99° |
| 2026-05-05 08:27 | 55.74238 | 9.18136 | 216 ft | 8 kts | 153° |
| 2026-05-05 08:27 | 55.74223 | 9.18143 | 216 ft | 0 kts | 168° |
| 2026-05-05 08:28 | 55.74199 | 9.18149 | 216 ft | 11 kts | 173° |
| 2026-05-05 08:28 | 55.74128 | 9.18104 | 219 ft | 12 kts | 241° |
| 2026-05-05 08:28 | 55.74117 | 9.17912 | 216 ft | 33 kts | 266° |
| 2026-05-05 08:29 | 55.74092 | 9.17092 | 220 ft | 97 kts | 266° |
| 2026-05-05 08:29 | 55.74048 | 9.15614 | 216 ft | 143 kts | 267° |
| 2026-05-05 08:29 | 55.73984 | 9.13650 | 460 ft | 163 kts | 266° |
| 2026-05-05 08:30 | 55.74616 | 9.09806 | 1542 ft | 176 kts | 308° |
| 2026-05-05 08:30 | 55.75416 | 9.08009 | 1808 ft | 194 kts | 310° |
| 2026-05-05 08:30 | 55.76341 | 9.06067 | 1964 ft | 220 kts | 312° |
| 2026-05-05 08:30 | 55.77400 | 9.03899 | 2283 ft | 242 kts | 312° |
| 2026-05-05 08:31 | 55.78496 | 9.01583 | 3017 ft | 248 kts | 311° |
| 2026-05-05 08:31 | 55.79421 | 8.98972 | 3758 ft | 256 kts | 288° |
| 2026-05-05 08:31 | 55.79403 | 8.95792 | 4502 ft | 267 kts | 252° |
| 2026-05-05 08:31 | 55.78327 | 8.93105 | 5276 ft | 274 kts | 217° |
| 2026-05-05 08:32 | 55.76546 | 8.91909 | 6041 ft | 280 kts | 182° |
| 2026-05-05 08:32 | 55.74659 | 8.92657 | 6798 ft | 283 kts | 150° |
| 2026-05-05 08:32 | 55.73126 | 8.94872 | 7509 ft | 287 kts | 134° |
| 2026-05-05 08:32 | 55.71745 | 8.97447 | 8216 ft | 290 kts | 135° |
| 2026-05-05 08:33 | 55.70361 | 9.00031 | 8890 ft | 295 kts | 136° |
| 2026-05-05 08:33 | 55.68939 | 9.02687 | 9551 ft | 299 kts | 137° |
| 2026-05-05 08:33 | 55.67454 | 9.05310 | 10160 ft | 304 kts | 142° |
| 2026-05-05 08:33 | 55.65753 | 9.07721 | 10320 ft | 323 kts | 148° |
| 2026-05-05 08:34 | 55.63850 | 9.10072 | 10450 ft | 343 kts | 150° |
| 2026-05-05 08:34 | 55.61830 | 9.12443 | 10836 ft | 352 kts | 150° |
| 2026-05-05 08:34 | 55.59774 | 9.14852 | 11396 ft | 356 kts | 150° |
| 2026-05-05 08:34 | 55.57707 | 9.17322 | 11957 ft | 360 kts | 149° |
| 2026-05-05 08:35 | 55.55637 | 9.19849 | 12528 ft | 363 kts | 149° |
| 2026-05-05 08:35 | 55.53558 | 9.22420 | 13072 ft | 367 kts | 149° |
| 2026-05-05 08:35 | 55.51463 | 9.25030 | 13646 ft | 370 kts | 149° |
| 2026-05-05 08:35 | 55.49354 | 9.27665 | 14168 ft | 373 kts | 149° |
| 2026-05-05 08:36 | 55.47225 | 9.30322 | 14683 ft | 376 kts | 149° |
| 2026-05-05 08:36 | 55.45082 | 9.32987 | 15184 ft | 378 kts | 149° |
| 2026-05-05 08:36 | 55.42922 | 9.35664 | 15687 ft | 381 kts | 149° |
| 2026-05-05 08:36 | 55.40744 | 9.38352 | 16179 ft | 383 kts | 149° |
| 2026-05-05 08:37 | 55.38556 | 9.41047 | 16677 ft | 385 kts | 149° |
| 2026-05-05 08:37 | 55.36352 | 9.43758 | 17170 ft | 388 kts | 149° |
| 2026-05-05 08:37 | 55.34134 | 9.46483 | 17662 ft | 390 kts | 149° |
| 2026-05-05 08:37 | 55.31905 | 9.49218 | 18175 ft | 392 kts | 149° |
| 2026-05-05 08:38 | 55.29661 | 9.51973 | 18628 ft | 395 kts | 149° |
| 2026-05-05 08:38 | 55.27406 | 9.54738 | 19070 ft | 397 kts | 149° |
| 2026-05-05 08:38 | 55.25130 | 9.57520 | 19517 ft | 399 kts | 149° |
| 2026-05-05 08:38 | 55.22845 | 9.60307 | 19961 ft | 402 kts | 149° |
| 2026-05-05 08:39 | 55.20545 | 9.63107 | 20397 ft | 404 kts | 149° |
| 2026-05-05 08:39 | 55.18231 | 9.65920 | 20824 ft | 406 kts | 149° |
| 2026-05-05 08:39 | 55.15937 | 9.68708 | 21232 ft | 408 kts | 149° |
| 2026-05-05 08:39 | 55.13569 | 9.71579 | 21622 ft | 410 kts | 149° |
| 2026-05-05 08:40 | 55.11247 | 9.74391 | 22028 ft | 412 kts | 149° |
| 2026-05-05 08:40 | 55.08889 | 9.77244 | 22423 ft | 414 kts | 149° |
| 2026-05-05 08:40 | 55.06515 | 9.80117 | 22817 ft | 416 kts | 149° |
| 2026-05-05 08:40 | 55.04131 | 9.82998 | 23207 ft | 418 kts | 149° |
| 2026-05-05 08:41 | 55.01735 | 9.85890 | 23582 ft | 420 kts | 149° |
| 2026-05-05 08:41 | 54.99321 | 9.88793 | 23917 ft | 421 kts | 150° |
| 2026-05-05 08:41 | 54.96909 | 9.91688 | 24291 ft | 422 kts | 150° |
| 2026-05-05 08:41 | 54.94442 | 9.94434 | 24618 ft | 419 kts | 157° |
| 2026-05-05 08:42 | 54.91779 | 9.96404 | 24924 ft | 414 kts | 168° |
| 2026-05-05 08:42 | 54.88988 | 9.97483 | 25223 ft | 410 kts | 178° |
| 2026-05-05 08:42 | 54.86154 | 9.97661 | 25518 ft | 406 kts | 188° |
| 2026-05-05 08:42 | 54.83373 | 9.96989 | 25798 ft | 403 kts | 195° |
| 2026-05-05 08:43 | 54.80620 | 9.96070 | 26118 ft | 404 kts | 194° |
| 2026-05-05 08:43 | 54.77858 | 9.95159 | 26417 ft | 406 kts | 194° |
| 2026-05-05 08:43 | 54.75074 | 9.94250 | 26716 ft | 407 kts | 194° |
| 2026-05-05 08:43 | 54.72282 | 9.93343 | 27012 ft | 409 kts | 194° |
| 2026-05-05 08:44 | 54.69477 | 9.92434 | 27309 ft | 411 kts | 194° |
| 2026-05-05 08:44 | 54.66653 | 9.91520 | 27601 ft | 413 kts | 194° |
| 2026-05-05 08:44 | 54.63819 | 9.90601 | 27886 ft | 415 kts | 194° |
| 2026-05-05 08:44 | 54.60979 | 9.89687 | 28291 ft | 414 kts | 194° |
| 2026-05-05 08:45 | 54.58146 | 9.88788 | 28707 ft | 413 kts | 194° |
| 2026-05-05 08:45 | 54.55329 | 9.87896 | 29141 ft | 411 kts | 194° |
| 2026-05-05 08:45 | 54.52499 | 9.87134 | 29558 ft | 413 kts | 188° |
| 2026-05-05 08:45 | 54.49616 | 9.87126 | 29974 ft | 417 kts | 179° |
| 2026-05-05 08:46 | 54.46741 | 9.87984 | 30331 ft | 422 kts | 170° |
| 2026-05-05 08:46 | 54.43898 | 9.89216 | 30664 ft | 421 kts | 170° |
| 2026-05-05 08:46 | 54.41057 | 9.90437 | 31002 ft | 421 kts | 171° |
| 2026-05-05 08:46 | 54.38213 | 9.91645 | 31336 ft | 421 kts | 171° |
| 2026-05-05 08:47 | 54.35373 | 9.92837 | 31672 ft | 420 kts | 171° |
| 2026-05-05 08:47 | 54.32532 | 9.94021 | 31991 ft | 420 kts | 171° |
| 2026-05-05 08:47 | 54.29726 | 9.95189 | 32315 ft | 420 kts | 171° |
| 2026-05-05 08:47 | 54.26853 | 9.96388 | 32663 ft | 420 kts | 171° |
| 2026-05-05 08:48 | 54.24052 | 9.97557 | 32990 ft | 419 kts | 171° |
| 2026-05-05 08:48 | 54.21219 | 9.98740 | 33335 ft | 419 kts | 171° |
| 2026-05-05 08:48 | 54.18390 | 9.99928 | 33667 ft | 419 kts | 171° |
| 2026-05-05 08:48 | 54.15525 | 10.01131 | 33981 ft | 418 kts | 171° |
| 2026-05-05 08:49 | 54.12743 | 10.02293 | 34219 ft | 418 kts | 171° |
| 2026-05-05 08:49 | 54.09916 | 10.03470 | 34455 ft | 418 kts | 171° |
| 2026-05-05 08:49 | 54.07090 | 10.04641 | 34672 ft | 418 kts | 171° |
| 2026-05-05 08:49 | 54.04262 | 10.05807 | 34880 ft | 418 kts | 171° |
| 2026-05-05 08:50 | 54.01432 | 10.06977 | 34949 ft | 421 kts | 171° |
| 2026-05-05 08:50 | 53.95661 | 10.09365 | 34955 ft | 432 kts | 171° |
| 2026-05-05 08:51 | 53.89787 | 10.11797 | 34947 ft | 436 kts | 171° |
| 2026-05-05 08:51 | 53.83893 | 10.14217 | 34947 ft | 436 kts | 171° |
| 2026-05-05 08:52 | 53.77999 | 10.16634 | 34947 ft | 435 kts | 171° |
| 2026-05-05 08:52 | 53.72114 | 10.19047 | 34949 ft | 435 kts | 171° |
| 2026-05-05 08:53 | 53.66237 | 10.21495 | 34949 ft | 436 kts | 169° |
| 2026-05-05 08:53 | 53.60394 | 10.24299 | 34954 ft | 437 kts | 168° |
| 2026-05-05 08:54 | 53.54566 | 10.27260 | 34940 ft | 437 kts | 168° |
| 2026-05-05 08:54 | 53.48728 | 10.30150 | 34945 ft | 437 kts | 169° |
| 2026-05-05 08:55 | 53.42887 | 10.32955 | 34940 ft | 437 kts | 169° |
| 2026-05-05 08:55 | 53.37076 | 10.35726 | 34927 ft | 437 kts | 169° |
| 2026-05-05 08:56 | 53.31224 | 10.38523 | 34932 ft | 438 kts | 169° |
| 2026-05-05 08:56 | 53.25364 | 10.41327 | 34906 ft | 438 kts | 169° |
| 2026-05-05 08:57 | 53.19497 | 10.44131 | 34919 ft | 439 kts | 170° |
| 2026-05-05 08:57 | 53.13623 | 10.46912 | 34928 ft | 439 kts | 170° |
| 2026-05-05 08:58 | 53.07740 | 10.49693 | 34920 ft | 439 kts | 170° |
| 2026-05-05 08:58 | 53.01858 | 10.52486 | 34925 ft | 440 kts | 170° |
| 2026-05-05 08:59 | 52.95974 | 10.55266 | 34923 ft | 440 kts | 170° |
| 2026-05-05 08:59 | 52.90090 | 10.58026 | 34923 ft | 440 kts | 170° |
| 2026-05-05 09:00 | 52.84205 | 10.60780 | 34915 ft | 440 kts | 170° |
| 2026-05-05 09:00 | 52.78353 | 10.63507 | 34907 ft | 439 kts | 170° |
| 2026-05-05 09:01 | 52.72479 | 10.66232 | 34906 ft | 438 kts | 170° |
| 2026-05-05 09:01 | 52.66580 | 10.68981 | 34913 ft | 438 kts | 170° |
| 2026-05-05 09:02 | 52.60724 | 10.71695 | 34914 ft | 436 kts | 170° |
| 2026-05-05 09:02 | 52.54881 | 10.74395 | 34918 ft | 436 kts | 170° |
| 2026-05-05 09:03 | 52.49076 | 10.77068 | 34902 ft | 436 kts | 170° |
| 2026-05-05 09:03 | 52.43239 | 10.79752 | 34916 ft | 436 kts | 170° |
| 2026-05-05 09:04 | 52.37401 | 10.82431 | 34921 ft | 436 kts | 170° |
| 2026-05-05 09:04 | 52.31575 | 10.85095 | 34921 ft | 435 kts | 170° |
| 2026-05-05 09:05 | 52.25724 | 10.87751 | 34909 ft | 436 kts | 171° |
| 2026-05-05 09:05 | 52.19884 | 10.90401 | 34889 ft | 437 kts | 171° |
| 2026-05-05 09:06 | 52.14025 | 10.93058 | 34900 ft | 436 kts | 171° |
| 2026-05-05 09:06 | 52.08184 | 10.95703 | 34891 ft | 435 kts | 171° |
| 2026-05-05 09:07 | 52.02346 | 10.98330 | 34896 ft | 436 kts | 171° |
| 2026-05-05 09:07 | 51.96493 | 11.00965 | 34882 ft | 436 kts | 171° |
| 2026-05-05 09:08 | 51.90641 | 11.03590 | 34892 ft | 437 kts | 171° |
| 2026-05-05 09:08 | 51.84758 | 11.05811 | 34903 ft | 430 kts | 178° |
| 2026-05-05 09:09 | 51.79822 | 11.06896 | 34905 ft | 431 kts | 178° |
| 2026-05-05 09:09 | 51.73885 | 11.08226 | 34895 ft | 431 kts | 178° |
| 2026-05-05 09:10 | 51.67953 | 11.09555 | 34904 ft | 430 kts | 178° |
| 2026-05-05 09:10 | 51.62025 | 11.10883 | 34911 ft | 430 kts | 178° |
| 2026-05-05 09:11 | 51.56104 | 11.12194 | 34914 ft | 430 kts | 178° |
| 2026-05-05 09:11 | 51.50183 | 11.13509 | 34883 ft | 429 kts | 178° |
| 2026-05-05 09:12 | 51.44268 | 11.14819 | 34905 ft | 428 kts | 178° |
| 2026-05-05 09:12 | 51.38363 | 11.16122 | 34911 ft | 428 kts | 178° |
| 2026-05-05 09:13 | 51.32471 | 11.17424 | 34913 ft | 428 kts | 178° |
| 2026-05-05 09:13 | 51.26575 | 11.18716 | 34908 ft | 427 kts | 178° |
| 2026-05-05 09:14 | 51.20695 | 11.20001 | 34922 ft | 426 kts | 178° |
| 2026-05-05 09:14 | 51.14828 | 11.21281 | 34929 ft | 425 kts | 178° |
| 2026-05-05 09:15 | 51.08973 | 11.22562 | 34929 ft | 425 kts | 178° |
| 2026-05-05 09:15 | 51.03120 | 11.23833 | 34911 ft | 424 kts | 177° |
| 2026-05-05 09:16 | 50.97284 | 11.25104 | 34914 ft | 423 kts | 177° |
| 2026-05-05 09:16 | 50.91456 | 11.26367 | 34916 ft | 422 kts | 177° |
| 2026-05-05 09:17 | 50.85639 | 11.27621 | 34921 ft | 421 kts | 177° |
| 2026-05-05 09:17 | 50.79834 | 11.28867 | 34917 ft | 421 kts | 177° |
| 2026-05-05 09:18 | 50.74032 | 11.30111 | 34873 ft | 420 kts | 176° |
| 2026-05-05 09:18 | 50.68231 | 11.31353 | 34876 ft | 421 kts | 176° |
| 2026-05-05 09:19 | 50.62426 | 11.32598 | 34886 ft | 421 kts | 177° |
| 2026-05-05 09:19 | 50.56611 | 11.33828 | 34889 ft | 421 kts | 177° |
| 2026-05-05 09:20 | 50.50806 | 11.35062 | 34886 ft | 422 kts | 176° |
| 2026-05-05 09:20 | 50.44987 | 11.36298 | 34891 ft | 422 kts | 176° |
| 2026-05-05 09:21 | 50.39169 | 11.37532 | 34883 ft | 422 kts | 177° |
| 2026-05-05 09:21 | 50.33353 | 11.38752 | 34892 ft | 422 kts | 177° |
| 2026-05-05 09:22 | 50.27573 | 11.39970 | 34877 ft | 422 kts | 176° |
| 2026-05-05 09:22 | 50.21774 | 11.41193 | 34868 ft | 421 kts | 177° |
| 2026-05-05 09:23 | 50.15959 | 11.42409 | 34867 ft | 422 kts | 177° |
| 2026-05-05 09:23 | 50.10131 | 11.43616 | 34863 ft | 422 kts | 177° |
| 2026-05-05 09:24 | 50.04305 | 11.44831 | 34870 ft | 422 kts | 176° |
| 2026-05-05 09:24 | 49.98475 | 11.46056 | 34859 ft | 422 kts | 176° |
| 2026-05-05 09:25 | 49.92656 | 11.47268 | 34866 ft | 422 kts | 176° |
| 2026-05-05 09:25 | 49.86839 | 11.48480 | 34872 ft | 422 kts | 176° |
| 2026-05-05 09:26 | 49.81022 | 11.49674 | 34865 ft | 421 kts | 176° |
| 2026-05-05 09:26 | 49.75209 | 11.50860 | 34863 ft | 421 kts | 176° |
| 2026-05-05 09:27 | 49.69402 | 11.52035 | 34860 ft | 421 kts | 176° |
| 2026-05-05 09:27 | 49.63598 | 11.53233 | 34860 ft | 421 kts | 176° |
| 2026-05-05 09:28 | 49.57800 | 11.54430 | 34850 ft | 421 kts | 176° |
| 2026-05-05 09:28 | 49.51991 | 11.55365 | 34853 ft | 419 kts | 180° |
| 2026-05-05 09:29 | 49.46176 | 11.55893 | 34862 ft | 419 kts | 181° |
| 2026-05-05 09:29 | 49.40357 | 11.56379 | 34862 ft | 419 kts | 180° |
| 2026-05-05 09:30 | 49.34537 | 11.56946 | 34851 ft | 419 kts | 180° |
| 2026-05-05 09:30 | 49.28720 | 11.57566 | 34854 ft | 419 kts | 180° |
| 2026-05-05 09:31 | 49.22905 | 11.58200 | 34859 ft | 419 kts | 180° |
| 2026-05-05 09:31 | 49.17130 | 11.58810 | 34855 ft | 419 kts | 180° |
| 2026-05-05 09:32 | 49.11259 | 11.59412 | 34845 ft | 420 kts | 180° |
| 2026-05-05 09:32 | 49.05465 | 11.60005 | 34847 ft | 421 kts | 180° |
| 2026-05-05 09:33 | 48.99617 | 11.60606 | 34845 ft | 421 kts | 180° |
| 2026-05-05 09:33 | 48.93768 | 11.61218 | 34852 ft | 422 kts | 180° |
| 2026-05-05 09:34 | 48.87914 | 11.61825 | 34865 ft | 422 kts | 180° |
| 2026-05-05 09:34 | 48.82055 | 11.62422 | 34875 ft | 422 kts | 180° |
| 2026-05-05 09:35 | 48.76204 | 11.63013 | 34884 ft | 422 kts | 180° |
| 2026-05-05 09:35 | 48.67413 | 11.63911 | 34884 ft | 422 kts | 180° |
| 2026-05-05 09:36 | 48.61549 | 11.64509 | 34878 ft | 422 kts | 180° |
| 2026-05-05 09:36 | 48.55686 | 11.65107 | 34877 ft | 422 kts | 180° |
| 2026-05-05 09:37 | 48.49823 | 11.65707 | 34879 ft | 422 kts | 180° |
| 2026-05-05 09:37 | 48.43962 | 11.66298 | 34882 ft | 422 kts | 179° |
| 2026-05-05 09:38 | 48.38118 | 11.66884 | 34887 ft | 421 kts | 179° |
| 2026-05-05 09:38 | 48.32277 | 11.67466 | 34868 ft | 421 kts | 179° |
| 2026-05-05 09:39 | 48.26425 | 11.68045 | 34854 ft | 422 kts | 179° |
| 2026-05-05 09:39 | 48.20565 | 11.68638 | 34861 ft | 423 kts | 179° |
| 2026-05-05 09:40 | 48.14683 | 11.69230 | 34866 ft | 423 kts | 179° |
| 2026-05-05 09:40 | 48.08800 | 11.69811 | 34866 ft | 424 kts | 179° |
| 2026-05-05 09:41 | 48.02922 | 11.70401 | 34860 ft | 423 kts | 179° |
| 2026-05-05 09:41 | 47.97042 | 11.70983 | 34871 ft | 423 kts | 179° |
| 2026-05-05 09:42 | 47.91172 | 11.71564 | 34865 ft | 423 kts | 179° |
| 2026-05-05 09:42 | 47.85303 | 11.72150 | 34862 ft | 422 kts | 179° |
| 2026-05-05 09:43 | 47.79442 | 11.72722 | 34860 ft | 422 kts | 179° |
| 2026-05-05 09:43 | 47.73594 | 11.73287 | 34861 ft | 420 kts | 179° |
| 2026-05-05 09:44 | 47.67765 | 11.73857 | 34856 ft | 419 kts | 179° |
| 2026-05-05 09:44 | 47.61981 | 11.74424 | 34852 ft | 419 kts | 179° |
| 2026-05-05 09:45 | 47.56175 | 11.74993 | 34852 ft | 418 kts | 179° |
| 2026-05-05 09:45 | 47.50374 | 11.75560 | 34846 ft | 417 kts | 179° |
| 2026-05-05 09:46 | 47.44573 | 11.76117 | 34844 ft | 418 kts | 179° |
| 2026-05-05 09:46 | 47.38751 | 11.76674 | 34845 ft | 419 kts | 179° |
| 2026-05-05 09:47 | 47.32937 | 11.76783 | 34867 ft | 417 kts | 184° |
| 2026-05-05 09:47 | 47.27132 | 11.76450 | 34884 ft | 417 kts | 184° |
| 2026-05-05 09:48 | 47.21334 | 11.76129 | 34885 ft | 417 kts | 184° |
| 2026-05-05 09:48 | 47.15529 | 11.75827 | 34905 ft | 417 kts | 184° |
| 2026-05-05 09:49 | 47.09738 | 11.75524 | 34941 ft | 416 kts | 184° |
| 2026-05-05 09:49 | 47.03957 | 11.75213 | 34940 ft | 416 kts | 184° |
| 2026-05-05 09:50 | 46.98170 | 11.74898 | 34950 ft | 416 kts | 184° |
| 2026-05-05 09:50 | 46.92387 | 11.74570 | 34938 ft | 417 kts | 184° |
| 2026-05-05 09:51 | 46.86585 | 11.74259 | 34943 ft | 418 kts | 184° |
| 2026-05-05 09:51 | 46.80766 | 11.73945 | 34950 ft | 418 kts | 184° |
| 2026-05-05 09:52 | 46.74950 | 11.73631 | 34956 ft | 419 kts | 185° |
| 2026-05-05 09:52 | 46.69134 | 11.73316 | 34966 ft | 419 kts | 185° |
| 2026-05-05 09:53 | 46.63311 | 11.73003 | 34981 ft | 419 kts | 185° |
| 2026-05-05 09:53 | 46.57520 | 11.72689 | 34990 ft | 419 kts | 185° |
| 2026-05-05 09:54 | 46.51705 | 11.72356 | 35004 ft | 418 kts | 185° |
| 2026-05-05 09:54 | 46.45894 | 11.72026 | 35004 ft | 417 kts | 185° |
| 2026-05-05 09:55 | 46.41030 | 11.71789 | 35011 ft | 418 kts | 181° |
| 2026-05-05 09:55 | 46.35277 | 11.73258 | 35004 ft | 424 kts | 167° |
| 2026-05-05 09:56 | 46.29636 | 11.75751 | 35019 ft | 423 kts | 167° |
| 2026-05-05 09:56 | 46.24000 | 11.78214 | 35019 ft | 423 kts | 167° |
| 2026-05-05 09:57 | 46.18407 | 11.80651 | 35022 ft | 423 kts | 167° |
| 2026-05-05 09:57 | 46.12775 | 11.83094 | 35021 ft | 423 kts | 167° |
| 2026-05-05 09:58 | 46.07139 | 11.85544 | 35028 ft | 423 kts | 167° |
| 2026-05-05 09:58 | 46.01508 | 11.87988 | 35032 ft | 423 kts | 167° |
| 2026-05-05 09:59 | 45.95876 | 11.90426 | 35035 ft | 423 kts | 167° |
| 2026-05-05 09:59 | 45.90239 | 11.92853 | 35021 ft | 423 kts | 167° |
| 2026-05-05 10:00 | 45.84600 | 11.95280 | 35021 ft | 423 kts | 167° |
| 2026-05-05 10:00 | 45.78961 | 11.97711 | 35026 ft | 424 kts | 167° |
| 2026-05-05 10:01 | 45.73305 | 12.00134 | 35024 ft | 424 kts | 167° |
| 2026-05-05 10:01 | 45.67649 | 12.02550 | 35031 ft | 425 kts | 167° |
| 2026-05-05 10:02 | 45.61984 | 12.04973 | 35032 ft | 425 kts | 167° |
| 2026-05-05 10:02 | 45.56314 | 12.07402 | 35036 ft | 425 kts | 167° |
| 2026-05-05 10:03 | 45.50640 | 12.09818 | 35031 ft | 426 kts | 167° |
| 2026-05-05 10:03 | 45.44959 | 12.12227 | 35025 ft | 426 kts | 167° |
| 2026-05-05 10:04 | 45.39271 | 12.14621 | 35025 ft | 426 kts | 167° |
| 2026-05-05 10:04 | 45.33578 | 12.17027 | 35028 ft | 427 kts | 167° |
| 2026-05-05 10:05 | 45.27883 | 12.19431 | 35026 ft | 427 kts | 167° |
| 2026-05-05 10:05 | 45.22190 | 12.21824 | 35030 ft | 427 kts | 167° |
| 2026-05-05 10:06 | 45.16490 | 12.24212 | 35033 ft | 427 kts | 167° |
| 2026-05-05 10:06 | 45.10793 | 12.26602 | 35020 ft | 427 kts | 167° |
| 2026-05-05 10:07 | 45.05015 | 12.28014 | 35023 ft | 418 kts | 184° |
| 2026-05-05 10:07 | 44.99205 | 12.27713 | 35033 ft | 418 kts | 186° |
| 2026-05-05 10:08 | 44.93395 | 12.27417 | 35023 ft | 417 kts | 185° |
| 2026-05-05 10:08 | 44.87592 | 12.27137 | 35007 ft | 418 kts | 185° |
| 2026-05-05 10:09 | 44.81780 | 12.26845 | 35009 ft | 419 kts | 186° |
| 2026-05-05 10:09 | 44.75949 | 12.26536 | 35019 ft | 420 kts | 185° |
| 2026-05-05 10:10 | 44.70098 | 12.26229 | 35013 ft | 421 kts | 186° |
| 2026-05-05 10:10 | 44.64255 | 12.25926 | 35004 ft | 421 kts | 186° |
| 2026-05-05 10:11 | 44.58396 | 12.25626 | 35015 ft | 422 kts | 186° |
| 2026-05-05 10:11 | 44.52520 | 12.25333 | 35017 ft | 423 kts | 186° |
| 2026-05-05 10:12 | 44.46639 | 12.25036 | 35018 ft | 423 kts | 186° |
| 2026-05-05 10:12 | 44.40744 | 12.24732 | 35027 ft | 424 kts | 186° |
| 2026-05-05 10:13 | 44.34844 | 12.24427 | 35018 ft | 424 kts | 186° |
| 2026-05-05 10:13 | 44.28989 | 12.24131 | 35007 ft | 425 kts | 186° |
| 2026-05-05 10:14 | 44.23070 | 12.23836 | 35015 ft | 426 kts | 186° |
| 2026-05-05 10:14 | 44.17102 | 12.23527 | 35017 ft | 427 kts | 186° |
| 2026-05-05 10:15 | 44.11199 | 12.23225 | 35028 ft | 427 kts | 186° |
| 2026-05-05 10:15 | 44.05255 | 12.22928 | 35034 ft | 428 kts | 186° |
| 2026-05-05 10:16 | 43.99307 | 12.22632 | 35037 ft | 428 kts | 186° |
| 2026-05-05 10:16 | 43.93357 | 12.22340 | 35033 ft | 428 kts | 187° |
| 2026-05-05 10:17 | 43.87404 | 12.22040 | 35039 ft | 428 kts | 187° |
| 2026-05-05 10:17 | 43.81449 | 12.21740 | 35043 ft | 428 kts | 187° |
| 2026-05-05 10:18 | 43.75493 | 12.21435 | 35035 ft | 429 kts | 187° |
| 2026-05-05 10:18 | 43.69528 | 12.21141 | 35049 ft | 429 kts | 187° |
| 2026-05-05 10:19 | 43.63554 | 12.20866 | 35056 ft | 431 kts | 185° |
| 2026-05-05 10:19 | 43.57537 | 12.21684 | 35057 ft | 436 kts | 178° |
| 2026-05-05 10:20 | 43.51506 | 12.22738 | 35035 ft | 438 kts | 179° |
| 2026-05-05 10:20 | 43.45449 | 12.23791 | 35041 ft | 440 kts | 179° |
| 2026-05-05 10:21 | 43.39372 | 12.24845 | 35049 ft | 441 kts | 179° |
| 2026-05-05 10:21 | 43.33279 | 12.25885 | 35045 ft | 441 kts | 179° |
| 2026-05-05 10:22 | 43.27178 | 12.26925 | 35055 ft | 443 kts | 179° |
| 2026-05-05 10:22 | 43.21065 | 12.27985 | 35064 ft | 443 kts | 179° |
| 2026-05-05 10:23 | 43.14950 | 12.29036 | 35070 ft | 443 kts | 179° |
| 2026-05-05 10:23 | 43.08837 | 12.30083 | 35086 ft | 443 kts | 179° |
| 2026-05-05 10:24 | 43.02718 | 12.31125 | 35089 ft | 443 kts | 179° |
| 2026-05-05 10:24 | 42.96610 | 12.32167 | 35090 ft | 443 kts | 179° |
| 2026-05-05 10:25 | 42.90542 | 12.33203 | 35086 ft | 442 kts | 180° |
| 2026-05-05 10:25 | 42.84443 | 12.34239 | 35084 ft | 442 kts | 180° |
| 2026-05-05 10:26 | 42.78344 | 12.35271 | 35083 ft | 441 kts | 180° |
| 2026-05-05 10:26 | 42.72254 | 12.36304 | 35081 ft | 441 kts | 180° |
| 2026-05-05 10:27 | 42.66170 | 12.37335 | 35091 ft | 440 kts | 180° |
| 2026-05-05 10:27 | 42.60097 | 12.38360 | 35092 ft | 440 kts | 180° |
| 2026-05-05 10:28 | 42.54026 | 12.39355 | 35071 ft | 439 kts | 180° |
| 2026-05-05 10:28 | 42.47955 | 12.40368 | 35094 ft | 439 kts | 180° |
| 2026-05-05 10:29 | 42.41894 | 12.41392 | 35103 ft | 439 kts | 180° |
| 2026-05-05 10:29 | 42.35839 | 12.42408 | 35105 ft | 439 kts | 180° |
| 2026-05-05 10:30 | 42.29776 | 12.43425 | 35096 ft | 438 kts | 180° |
| 2026-05-05 10:30 | 42.23734 | 12.44431 | 35102 ft | 438 kts | 180° |
| 2026-05-05 10:31 | 42.17691 | 12.45433 | 35122 ft | 437 kts | 180° |
| 2026-05-05 10:31 | 42.11657 | 12.46435 | 35124 ft | 436 kts | 180° |
| 2026-05-05 10:32 | 42.05631 | 12.47426 | 35131 ft | 436 kts | 180° |
| 2026-05-05 10:32 | 41.99607 | 12.48414 | 35131 ft | 436 kts | 180° |
| 2026-05-05 10:33 | 41.93620 | 12.49402 | 35134 ft | 437 kts | 180° |
| 2026-05-05 10:33 | 41.87595 | 12.50400 | 35131 ft | 436 kts | 180° |
| 2026-05-05 10:34 | 41.81582 | 12.51383 | 35128 ft | 435 kts | 180° |
| 2026-05-05 10:34 | 41.75572 | 12.52369 | 35136 ft | 435 kts | 180° |
| 2026-05-05 10:35 | 41.69558 | 12.53352 | 35090 ft | 435 kts | 180° |
| 2026-05-05 10:35 | 41.63562 | 12.54330 | 35102 ft | 433 kts | 180° |
| 2026-05-05 10:36 | 41.57574 | 12.55307 | 35108 ft | 433 kts | 180° |
| 2026-05-05 10:36 | 41.51601 | 12.56282 | 35109 ft | 432 kts | 180° |
| 2026-05-05 10:37 | 41.45637 | 12.57242 | 35114 ft | 431 kts | 181° |
| 2026-05-05 10:37 | 41.39695 | 12.58200 | 35116 ft | 430 kts | 180° |
| 2026-05-05 10:38 | 41.33762 | 12.59159 | 35119 ft | 429 kts | 181° |
| 2026-05-05 10:38 | 41.27842 | 12.60117 | 35106 ft | 429 kts | 181° |
| 2026-05-05 10:39 | 41.21925 | 12.61081 | 35104 ft | 427 kts | 181° |
| 2026-05-05 10:39 | 41.16025 | 12.62027 | 35097 ft | 427 kts | 181° |
| 2026-05-05 10:40 | 41.10119 | 12.62973 | 35109 ft | 428 kts | 181° |
| 2026-05-05 10:40 | 41.05209 | 12.63761 | 35085 ft | 428 kts | 180° |
| 2026-05-05 10:41 | 40.99285 | 12.64707 | 35083 ft | 430 kts | 180° |
| 2026-05-05 10:41 | 40.93337 | 12.65656 | 35091 ft | 431 kts | 180° |
| 2026-05-05 10:42 | 40.84400 | 12.67076 | 35087 ft | 432 kts | 180° |
| 2026-05-05 10:43 | 40.78415 | 12.68034 | 35079 ft | 435 kts | 179° |
| 2026-05-05 10:43 | 40.72452 | 12.69828 | 35087 ft | 442 kts | 173° |
| 2026-05-05 10:44 | 40.66476 | 12.71788 | 35091 ft | 442 kts | 173° |
| 2026-05-05 10:44 | 40.60533 | 12.73723 | 35073 ft | 443 kts | 173° |
| 2026-05-05 10:45 | 40.54489 | 12.75681 | 35085 ft | 445 kts | 173° |
| 2026-05-05 10:45 | 40.48514 | 12.77626 | 35095 ft | 446 kts | 173° |
| 2026-05-05 10:46 | 40.42478 | 12.79586 | 35098 ft | 447 kts | 173° |
| 2026-05-05 10:46 | 40.36425 | 12.81542 | 35084 ft | 449 kts | 173° |
| 2026-05-05 10:47 | 40.30350 | 12.83507 | 35089 ft | 450 kts | 173° |
| 2026-05-05 10:47 | 40.24260 | 12.85468 | 35101 ft | 451 kts | 173° |
| 2026-05-05 10:48 | 40.18162 | 12.87431 | 35097 ft | 451 kts | 172° |
| 2026-05-05 10:48 | 40.12052 | 12.89390 | 35103 ft | 452 kts | 172° |
| 2026-05-05 10:49 | 40.05937 | 12.91354 | 35105 ft | 453 kts | 172° |
| 2026-05-05 10:49 | 39.99815 | 12.93315 | 35116 ft | 453 kts | 172° |
| 2026-05-05 10:50 | 39.93689 | 12.95271 | 35124 ft | 453 kts | 172° |
| 2026-05-05 10:50 | 39.87566 | 12.97221 | 35124 ft | 453 kts | 172° |
| 2026-05-05 10:51 | 39.81436 | 12.99172 | 35128 ft | 453 kts | 172° |
| 2026-05-05 10:51 | 39.75312 | 13.01121 | 35127 ft | 453 kts | 172° |
| 2026-05-05 10:52 | 39.69174 | 13.03070 | 35108 ft | 454 kts | 172° |
| 2026-05-05 10:52 | 39.63068 | 13.05000 | 35108 ft | 455 kts | 172° |
| 2026-05-05 10:53 | 39.56914 | 13.06867 | 35116 ft | 454 kts | 174° |
| 2026-05-05 10:53 | 39.50726 | 13.08394 | 35113 ft | 452 kts | 176° |
| 2026-05-05 10:54 | 39.44519 | 13.09811 | 35112 ft | 453 kts | 176° |
| 2026-05-05 10:54 | 39.38306 | 13.11297 | 35108 ft | 455 kts | 175° |
| 2026-05-05 10:55 | 39.32087 | 13.12837 | 35126 ft | 455 kts | 175° |
| 2026-05-05 10:55 | 39.25867 | 13.14384 | 35102 ft | 455 kts | 175° |
| 2026-05-05 10:56 | 39.19640 | 13.15920 | 35109 ft | 456 kts | 175° |
| 2026-05-05 10:56 | 39.13406 | 13.17448 | 35111 ft | 456 kts | 175° |
| 2026-05-05 10:57 | 39.07170 | 13.18966 | 35117 ft | 456 kts | 175° |
| 2026-05-05 10:57 | 39.00930 | 13.20482 | 35109 ft | 456 kts | 175° |
| 2026-05-05 10:58 | 38.94693 | 13.22007 | 35120 ft | 456 kts | 175° |
| 2026-05-05 10:58 | 38.88453 | 13.23528 | 35121 ft | 456 kts | 175° |
| 2026-05-05 10:59 | 38.82214 | 13.25050 | 35115 ft | 456 kts | 175° |
| 2026-05-05 10:59 | 38.75976 | 13.26567 | 35115 ft | 456 kts | 175° |
| 2026-05-05 11:00 | 38.69741 | 13.28075 | 35117 ft | 456 kts | 175° |
| 2026-05-05 11:00 | 38.63504 | 13.29573 | 35120 ft | 456 kts | 175° |
| 2026-05-05 11:01 | 38.57270 | 13.31065 | 35114 ft | 456 kts | 175° |
| 2026-05-05 11:01 | 38.51045 | 13.32580 | 35124 ft | 455 kts | 174° |
| 2026-05-05 11:02 | 38.44830 | 13.34094 | 35127 ft | 454 kts | 174° |
| 2026-05-05 11:02 | 38.38620 | 13.35584 | 35133 ft | 454 kts | 175° |
| 2026-05-05 11:03 | 38.32406 | 13.37062 | 35117 ft | 454 kts | 174° |
| 2026-05-05 11:03 | 38.26243 | 13.38534 | 35129 ft | 453 kts | 174° |
| 2026-05-05 11:04 | 38.20047 | 13.40015 | 35133 ft | 453 kts | 174° |
| 2026-05-05 11:04 | 38.13848 | 13.41489 | 35135 ft | 453 kts | 174° |
| 2026-05-05 11:05 | 38.07654 | 13.42960 | 35131 ft | 452 kts | 174° |
| 2026-05-05 11:05 | 38.01463 | 13.44439 | 35134 ft | 452 kts | 174° |
| 2026-05-05 11:06 | 37.95285 | 13.45904 | 35132 ft | 451 kts | 174° |
| 2026-05-05 11:06 | 37.89110 | 13.47357 | 35133 ft | 451 kts | 174° |
| 2026-05-05 11:07 | 37.82938 | 13.48818 | 35121 ft | 451 kts | 173° |
| 2026-05-05 11:07 | 37.76776 | 13.50273 | 35134 ft | 451 kts | 173° |
| 2026-05-05 11:08 | 37.70605 | 13.51723 | 35138 ft | 451 kts | 173° |
| 2026-05-05 11:08 | 37.64440 | 13.53169 | 35153 ft | 449 kts | 173° |
| 2026-05-05 11:09 | 37.58321 | 13.54606 | 35147 ft | 446 kts | 173° |
| 2026-05-05 11:09 | 37.52225 | 13.56035 | 35147 ft | 444 kts | 173° |
| 2026-05-05 11:10 | 37.46152 | 13.57456 | 35000 ft | 444 kts | 173° |
| 2026-05-05 11:10 | 37.43105 | 13.58169 | 33792 ft | 450 kts | 173° |
| 2026-05-05 11:10 | 37.40003 | 13.58893 | 32431 ft | 455 kts | 174° |
| 2026-05-05 11:10 | 37.36893 | 13.59619 | 31394 ft | 453 kts | 173° |
| 2026-05-05 11:11 | 37.33810 | 13.60339 | 30467 ft | 449 kts | 173° |
| 2026-05-05 11:11 | 37.30757 | 13.61053 | 29504 ft | 444 kts | 173° |
| 2026-05-05 11:11 | 37.27740 | 13.61757 | 28550 ft | 438 kts | 173° |
| 2026-05-05 11:11 | 37.24810 | 13.62436 | 27748 ft | 430 kts | 173° |
| 2026-05-05 11:12 | 37.21931 | 13.63105 | 27357 ft | 412 kts | 173° |
| 2026-05-05 11:12 | 37.19164 | 13.63747 | 26938 ft | 398 kts | 173° |
| 2026-05-05 11:12 | 37.16487 | 13.64372 | 26540 ft | 385 kts | 173° |
| 2026-05-05 11:12 | 37.13897 | 13.64977 | 26155 ft | 375 kts | 173° |
| 2026-05-05 11:13 | 37.11372 | 13.65837 | 25765 ft | 377 kts | 163° |
| 2026-05-05 11:13 | 37.08941 | 13.67064 | 25375 ft | 376 kts | 161° |
| 2026-05-05 11:13 | 37.06530 | 13.68309 | 24981 ft | 374 kts | 161° |
| 2026-05-05 11:13 | 37.04129 | 13.69553 | 24584 ft | 373 kts | 161° |
| 2026-05-05 11:14 | 37.01737 | 13.70792 | 24184 ft | 372 kts | 161° |
| 2026-05-05 11:14 | 36.99349 | 13.72024 | 23764 ft | 371 kts | 161° |
| 2026-05-05 11:14 | 36.96964 | 13.73251 | 23310 ft | 370 kts | 161° |
| 2026-05-05 11:14 | 36.94591 | 13.74469 | 22888 ft | 367 kts | 161° |
| 2026-05-05 11:15 | 36.92234 | 13.75678 | 22470 ft | 365 kts | 161° |
| 2026-05-05 11:15 | 36.89889 | 13.76880 | 22045 ft | 363 kts | 161° |
| 2026-05-05 11:15 | 36.87558 | 13.78072 | 21627 ft | 361 kts | 161° |
| 2026-05-05 11:15 | 36.85235 | 13.79261 | 21203 ft | 360 kts | 161° |
| 2026-05-05 11:16 | 36.82919 | 13.80450 | 20781 ft | 359 kts | 161° |
| 2026-05-05 11:16 | 36.80618 | 13.81632 | 20360 ft | 358 kts | 161° |
| 2026-05-05 11:16 | 36.78318 | 13.82813 | 19937 ft | 357 kts | 161° |
| 2026-05-05 11:16 | 36.76022 | 13.83987 | 19510 ft | 356 kts | 161° |
| 2026-05-05 11:17 | 36.73731 | 13.85156 | 19085 ft | 356 kts | 161° |
| 2026-05-05 11:17 | 36.71442 | 13.86323 | 18659 ft | 355 kts | 161° |
| 2026-05-05 11:17 | 36.69157 | 13.87486 | 18208 ft | 355 kts | 161° |
| 2026-05-05 11:17 | 36.66879 | 13.88645 | 17767 ft | 353 kts | 161° |
| 2026-05-05 11:18 | 36.64611 | 13.89799 | 17342 ft | 351 kts | 161° |
| 2026-05-05 11:18 | 36.62356 | 13.90943 | 16920 ft | 349 kts | 161° |
| 2026-05-05 11:18 | 36.60110 | 13.92085 | 16501 ft | 347 kts | 160° |
| 2026-05-05 11:18 | 36.57882 | 13.93222 | 16081 ft | 346 kts | 160° |
| 2026-05-05 11:19 | 36.55657 | 13.94355 | 15660 ft | 345 kts | 160° |
| 2026-05-05 11:19 | 36.53461 | 13.95472 | 15256 ft | 336 kts | 160° |
| 2026-05-05 11:19 | 36.51315 | 13.96561 | 14661 ft | 331 kts | 160° |
| 2026-05-05 11:19 | 36.49188 | 13.97621 | 14061 ft | 327 kts | 162° |
| 2026-05-05 11:20 | 36.47064 | 13.98575 | 13415 ft | 322 kts | 163° |
| 2026-05-05 11:20 | 36.44979 | 13.99445 | 12770 ft | 319 kts | 164° |
| 2026-05-05 11:20 | 36.42883 | 14.00292 | 12134 ft | 315 kts | 164° |
| 2026-05-05 11:20 | 36.40806 | 14.01129 | 11512 ft | 312 kts | 163° |
| 2026-05-05 11:21 | 36.38757 | 14.01963 | 10916 ft | 308 kts | 163° |
| 2026-05-05 11:21 | 36.36734 | 14.02796 | 10341 ft | 305 kts | 163° |
| 2026-05-05 11:21 | 36.34743 | 14.03623 | 9892 ft | 296 kts | 162° |
| 2026-05-05 11:21 | 36.32822 | 14.04422 | 9525 ft | 284 kts | 162° |
| 2026-05-05 11:22 | 36.31003 | 14.05182 | 9327 ft | 269 kts | 162° |
| 2026-05-05 11:22 | 36.29246 | 14.05916 | 8953 ft | 265 kts | 162° |
| 2026-05-05 11:22 | 36.27503 | 14.06642 | 8664 ft | 263 kts | 162° |
| 2026-05-05 11:22 | 36.25769 | 14.07364 | 8347 ft | 262 kts | 162° |
| 2026-05-05 11:23 | 36.24039 | 14.08082 | 7937 ft | 265 kts | 161° |
| 2026-05-05 11:23 | 36.22244 | 14.08829 | 7335 ft | 277 kts | 161° |
| 2026-05-05 11:23 | 36.20408 | 14.09595 | 6983 ft | 279 kts | 161° |
| 2026-05-05 11:23 | 36.18575 | 14.10359 | 6736 ft | 274 kts | 161° |
| 2026-05-05 11:24 | 36.16821 | 14.11091 | 6554 ft | 260 kts | 161° |
| 2026-05-05 11:24 | 36.15148 | 14.11854 | 6141 ft | 254 kts | 153° |
| 2026-05-05 11:24 | 36.13676 | 14.13008 | 5677 ft | 250 kts | 140° |
| 2026-05-05 11:24 | 36.12438 | 14.14499 | 5193 ft | 247 kts | 134° |
| 2026-05-05 11:25 | 36.11243 | 14.16003 | 4836 ft | 240 kts | 134° |
| 2026-05-05 11:25 | 36.10086 | 14.17449 | 4324 ft | 239 kts | 135° |
| 2026-05-05 11:25 | 36.08913 | 14.18913 | 3840 ft | 236 kts | 136° |
| 2026-05-05 11:25 | 36.07797 | 14.20297 | 3722 ft | 219 kts | 136° |
| 2026-05-05 11:26 | 36.06757 | 14.21588 | 3578 ft | 206 kts | 136° |
| 2026-05-05 11:26 | 36.05782 | 14.22807 | 3418 ft | 192 kts | 137° |
| 2026-05-05 11:26 | 36.04866 | 14.23951 | 3111 ft | 185 kts | 137° |
| 2026-05-05 11:26 | 36.03961 | 14.25080 | 2995 ft | 188 kts | 138° |
| 2026-05-05 11:27 | 36.02996 | 14.26282 | 3001 ft | 203 kts | 136° |
| 2026-05-05 11:27 | 36.01991 | 14.27537 | 3002 ft | 207 kts | 138° |
| 2026-05-05 11:27 | 36.00980 | 14.28800 | 2993 ft | 207 kts | 136° |
| 2026-05-05 11:27 | 35.99964 | 14.30067 | 2988 ft | 208 kts | 136° |
| 2026-05-05 11:28 | 35.98942 | 14.31342 | 2991 ft | 209 kts | 137° |
| 2026-05-05 11:28 | 35.97920 | 14.32616 | 2994 ft | 208 kts | 138° |
| 2026-05-05 11:28 | 35.97255 | 14.33445 | 2997 ft | 200 kts | 136° |
| 2026-05-05 11:28 | 35.96299 | 14.34636 | 2996 ft | 192 kts | 137° |
| 2026-05-05 11:29 | 35.95372 | 14.35791 | 2894 ft | 187 kts | 139° |
| 2026-05-05 11:29 | 35.94464 | 14.36921 | 2685 ft | 184 kts | 139° |
| 2026-05-05 11:29 | 35.93564 | 14.38040 | 2456 ft | 182 kts | 137° |
| 2026-05-05 11:29 | 35.92667 | 14.39155 | 2222 ft | 182 kts | 139° |
| 2026-05-05 11:30 | 35.91774 | 14.40265 | 1979 ft | 182 kts | 136° |
| 2026-05-05 11:30 | 35.90876 | 14.41381 | 1740 ft | 182 kts | 136° |
| 2026-05-05 11:30 | 35.90016 | 14.42451 | 1495 ft | 169 kts | 138° |
| 2026-05-05 11:30 | 35.89216 | 14.43446 | 1277 ft | 158 kts | 137° |
| 2026-05-05 11:31 | 35.88471 | 14.44371 | 1071 ft | 147 kts | 136° |
| 2026-05-05 11:31 | 35.87751 | 14.45260 | 885 ft | 145 kts | 137° |
| 2026-05-05 11:31 | 35.87056 | 14.46132 | 697 ft | 142 kts | 136° |
| 2026-05-05 11:31 | 35.86362 | 14.46995 | 510 ft | 142 kts | 135° |
| 2026-05-05 11:32 | 35.85668 | 14.47849 | 331 ft | 141 kts | 136° |
| 2026-05-05 11:32 | 35.85003 | 14.48666 | 264 ft | 118 kts | 135° |
| 2026-05-05 11:32 | 35.84599 | 14.49172 | 259 ft | 62 kts | 134° |
| 2026-05-05 11:32 | 35.84454 | 14.49458 | 259 ft | 15 kts | 104° |
| 2026-05-05 11:33 | 35.84480 | 14.49571 | 259 ft | 15 kts | 30° |
| 2026-05-05 11:33 | 35.84568 | 14.49514 | 259 ft | 16 kts | 317° |
| 2026-05-05 11:33 | 35.84648 | 14.49415 | 259 ft | 17 kts | 315° |
| 2026-05-05 11:33 | 35.84735 | 14.49306 | 259 ft | 14 kts | 314° |
| 2026-05-05 11:34 | 35.84774 | 14.49257 | 259 ft | 0 kts | 314° |
| 2026-05-05 11:34 | 35.84776 | 14.49255 | 259 ft | 1 kts | 314° |
| 2026-05-05 11:34 | 35.84785 | 14.49243 | 259 ft | 3 kts | 314° |
| 2026-05-05 11:34 | 35.84806 | 14.49216 | 259 ft | 5 kts | 314° |
| 2026-05-05 11:35 | 35.84838 | 14.49177 | 259 ft | 7 kts | 314° |
| 2026-05-05 11:35 | 35.84888 | 14.49152 | 258 ft | 9 kts | 9° |
| 2026-05-05 11:35 | 35.84935 | 14.49207 | 258 ft | 10 kts | 70° |
| 2026-05-05 11:35 | 35.84912 | 14.49288 | 259 ft | 9 kts | 128° |
| 2026-05-05 11:36 | 35.84898 | 14.49327 | 259 ft | 3 kts | 73° |
| 2026-05-05 11:36 | 35.84918 | 14.49337 | 259 ft | 4 kts | 4° |
| 2026-05-05 11:36 | 35.84949 | 14.49337 | 259 ft | 2 kts | 0° |
| 2026-05-05 11:36 | 35.84960 | 14.49337 | 259 ft | 0 kts | 359° |
| 2026-05-05 11:37 | 35.84964 | 14.49337 | 259 ft | 0 kts | 359° |